createdAt,value
2019-02-28T15:51:57.459Z,66.16
2019-02-28T15:54:27.742Z,66.19
2019-02-28T15:56:58.045Z,65.72
2019-02-28T15:59:34.005Z,66.05
2019-02-28T16:02:06.367Z,66.21
2019-02-28T16:04:54.202Z,66.28
2019-02-28T16:07:24.516Z,66.34
2019-02-28T16:09:57.078Z,66.58
2019-02-28T16:12:26.707Z,66.75
2019-02-28T16:14:56.856Z,66.83
2019-02-28T16:17:27.047Z,66.97
2019-02-28T16:19:57.334Z,67.11
2019-02-28T16:22:28.480Z,67.31
2019-02-28T16:24:58.707Z,67.48
2019-02-28T16:27:29.553Z,67.72
2019-02-28T16:30:00.938Z,67.95
2019-02-28T16:32:31.224Z,68.12
2019-02-28T16:35:01.567Z,68.26
2019-02-28T16:37:32.272Z,68.39
2019-02-28T16:40:04.041Z,68.50
2019-02-28T16:42:34.273Z,68.80
2019-02-28T16:45:06.138Z,69.01
2019-02-28T16:47:37.159Z,69.16
2019-02-28T16:50:08.384Z,69.25
2019-02-28T16:55:12.043Z,69.45
2019-02-28T16:57:43.625Z,69.55
2019-02-28T17:00:15.769Z,69.68
2019-02-28T17:02:46.368Z,69.87
2019-02-28T17:05:16.895Z,70.18
2019-02-28T17:07:47.356Z,70.72
2019-02-28T17:10:19.857Z,71.14
2019-02-28T17:13:05.071Z,71.65
2019-02-28T17:15:45.833Z,71.85
2019-02-28T17:18:21.482Z,72.03
2019-02-28T17:20:50.819Z,72.25
2019-02-28T17:23:21.347Z,72.52
2019-02-28T17:25:53.498Z,72.58
2019-02-28T17:28:32.741Z,72.72
2019-02-28T17:31:20.849Z,72.89
2019-02-28T17:33:51.196Z,73.04
2019-02-28T17:36:21.398Z,73.16
2019-02-28T17:38:51.734Z,73.27
2019-02-28T17:41:21.996Z,73.30
2019-02-28T17:44:37.490Z,73.40
2019-02-28T17:47:44.927Z,73.46
2019-02-28T17:50:54.636Z,73.68
2019-02-28T17:54:20.759Z,73.76
2019-02-28T17:58:15.505Z,73.90
2019-02-28T18:01:25.326Z,74.25
2019-02-28T18:04:48.776Z,74.49
2019-02-28T18:08:27.741Z,74.60
2019-02-28T18:11:47.080Z,74.79
2019-02-28T18:14:45.547Z,75.10
2019-02-28T18:18:28.291Z,75.22
2019-02-28T18:21:41.061Z,75.28
2019-02-28T18:25:17.200Z,75.52
2019-02-28T18:28:44.243Z,75.75
2019-02-28T18:31:19.202Z,75.68
2019-02-28T18:34:02.397Z,75.71
2019-02-28T18:36:33.710Z,75.67
2019-02-28T18:39:08.139Z,75.59
2019-02-28T18:41:38.879Z,75.71
2019-02-28T18:44:13.683Z,75.79
2019-02-28T18:46:44.208Z,75.82
2019-02-28T18:49:15.099Z,75.87
2019-02-28T18:51:46.232Z,75.94
2019-02-28T18:54:16.863Z,75.93
2019-02-28T18:56:47.337Z,75.96
2019-02-28T18:59:18.028Z,76.00
2019-02-28T19:01:48.619Z,75.97
2019-02-28T19:04:19.120Z,75.98
2019-02-28T19:06:49.503Z,75.98
2019-02-28T19:09:22.698Z,76.05
2019-02-28T19:11:53.320Z,76.07
2019-02-28T19:14:23.929Z,76.14
2019-02-28T19:16:54.963Z,76.20
2019-02-28T19:19:25.497Z,76.21
2019-02-28T19:21:56.052Z,76.25
2019-02-28T19:24:26.493Z,76.30
2019-02-28T19:26:57.001Z,76.34
2019-02-28T19:29:27.380Z,76.40
2019-02-28T19:32:03.754Z,76.42
2019-02-28T19:34:34.412Z,76.46
2019-02-28T19:37:05.124Z,76.52
2019-02-28T19:39:35.425Z,76.61
2019-02-28T19:42:05.900Z,76.72
2019-02-28T19:44:36.385Z,76.80
2019-02-28T19:47:06.943Z,76.93
2019-02-28T19:49:37.434Z,77.01
2019-02-28T19:52:07.912Z,77.06
2019-02-28T19:54:38.414Z,77.12
2019-02-28T19:57:08.616Z,77.27
2019-02-28T19:59:38.945Z,77.34
2019-02-28T20:02:09.191Z,77.45
2019-02-28T20:04:39.285Z,77.61
2019-02-28T20:07:09.430Z,77.70
2019-02-28T20:09:39.615Z,77.75
2019-02-28T20:12:09.774Z,77.76
2019-02-28T20:14:39.888Z,77.72
2019-02-28T20:17:10.156Z,77.72
2019-02-28T20:19:40.216Z,77.72
2019-02-28T20:22:10.452Z,77.69
2019-02-28T20:24:40.728Z,77.71
2019-02-28T20:27:10.942Z,77.68
2019-02-28T20:29:41.136Z,77.70
2019-02-28T20:32:11.398Z,77.67
2019-02-28T20:34:41.447Z,77.67
2019-02-28T20:37:11.633Z,77.67
2019-02-28T20:39:41.808Z,77.71
2019-02-28T20:42:12.146Z,77.71
2019-02-28T20:44:42.503Z,77.81
2019-02-28T20:47:12.697Z,77.91
2019-02-28T20:49:42.941Z,78.00
2019-02-28T20:52:13.149Z,78.04
2019-02-28T20:54:43.270Z,77.98
2019-02-28T20:57:13.587Z,78.00
2019-02-28T20:59:43.736Z,78.01
2019-02-28T21:02:14.046Z,78.00
2019-02-28T21:04:44.162Z,78.05
2019-02-28T21:07:14.715Z,78.11
2019-02-28T21:09:45.281Z,78.13
2019-02-28T21:12:15.506Z,78.10
2019-02-28T21:14:45.656Z,78.08
2019-02-28T21:17:15.812Z,78.09
2019-02-28T21:19:45.970Z,78.09
2019-02-28T21:22:16.185Z,78.06
2019-02-28T21:24:46.481Z,78.06
2019-02-28T21:27:16.645Z,78.09
2019-02-28T21:29:46.797Z,78.14
2019-02-28T21:32:17.093Z,78.23
2019-02-28T21:34:47.235Z,78.47
2019-02-28T21:37:17.570Z,78.54
2019-02-28T21:39:47.742Z,78.55
2019-02-28T21:42:18.083Z,78.76
2019-02-28T21:44:48.231Z,79.04
2019-02-28T21:47:18.483Z,79.26
2019-02-28T21:49:48.606Z,79.51
2019-02-28T21:52:18.671Z,79.61
2019-02-28T21:54:48.825Z,79.68
2019-02-28T21:57:19.297Z,79.83
2019-02-28T21:59:49.806Z,79.78
2019-02-28T22:02:27.592Z,79.64
2019-02-28T22:04:57.952Z,79.49
2019-02-28T22:07:28.475Z,79.34
2019-02-28T22:09:58.983Z,79.20
2019-02-28T22:12:29.152Z,79.13
2019-02-28T22:14:59.314Z,79.09
2019-02-28T22:17:29.449Z,79.13
2019-02-28T22:19:59.630Z,78.80
2019-02-28T22:22:29.777Z,78.93
2019-02-28T22:25:00.006Z,79.02
2019-02-28T22:27:30.084Z,79.06
2019-02-28T22:30:02.102Z,79.04
2019-02-28T22:32:38.413Z,79.05
2019-02-28T22:35:22.681Z,79.06
2019-02-28T22:37:52.947Z,79.08
2019-02-28T22:40:23.169Z,79.09
2019-02-28T22:42:53.333Z,79.10
2019-02-28T22:45:23.488Z,79.13
2019-02-28T22:47:53.645Z,79.12
2019-02-28T22:50:23.743Z,79.15
2019-02-28T22:52:55.585Z,79.18
2019-02-28T22:55:25.871Z,79.23
2019-02-28T22:57:56.027Z,79.30
2019-02-28T23:00:46.787Z,79.31
2019-02-28T23:03:17.094Z,79.36
2019-02-28T23:05:47.399Z,79.37
2019-02-28T23:08:17.553Z,79.42
2019-02-28T23:10:47.791Z,79.48
2019-02-28T23:13:17.946Z,79.53
2019-02-28T23:15:48.190Z,79.60
2019-02-28T23:18:18.308Z,79.65
2019-02-28T23:20:48.576Z,79.70
2019-02-28T23:23:18.760Z,79.81
2019-02-28T23:25:49.090Z,79.87
2019-02-28T23:28:28.698Z,79.96
2019-02-28T23:31:57.884Z,80.06
2019-02-28T23:34:41.614Z,80.12
2019-02-28T23:37:11.827Z,80.20
2019-02-28T23:39:42.017Z,80.16
2019-02-28T23:42:12.525Z,80.18
2019-02-28T23:44:42.785Z,80.20
2019-02-28T23:47:13.045Z,80.22
2019-02-28T23:49:43.343Z,80.23
2019-02-28T23:52:13.762Z,80.28
2019-02-28T23:54:43.971Z,80.34
2019-02-28T23:57:14.048Z,80.40
2019-02-28T23:59:44.373Z,80.46
